Time;durP1;ratioP1;P1;durP2;ratioP2;P2;SDS_P1;SDS_P2;PMS_P1;PMS_P2;Temp;Humidity;BMP_temperature;BMP_pressure;BME280_temperature;BME280_humidity;BME280_pressure;Samples;Min_cycle;Max_cycle;Signal;HPM_P1;HPM_P2
2022/06/02 00:00:59;;;;;;;7.45;4.80;;;;;;;12.59;63.02;100209.12;2263350;78;33636;-68
2022/06/02 00:04:21;;;;;;;9.90;6.47;;;;;;;12.57;62.99;100223.61;2142668;82;29088;-68
2022/06/02 00:07:47;;;;;;;7.47;5.28;;;;;;;12.52;63.19;100230.61;2130270;82;27732;-68
2022/06/02 00:11:14;;;;;;;8.48;6.28;;;;;;;12.50;63.25;100243.27;2105372;84;28651;-68
2022/06/02 00:14:21;;;;;;;7.12;5.60;;;;;;;12.47;63.42;100243.44;2115047;84;31028;-69
2022/06/02 00:17:46;;;;;;;7.10;5.45;;;;;;;12.41;63.55;100244.67;2115067;84;32791;-69
2022/06/02 00:20:55;;;;;;;6.90;6.20;;;;;;;12.37;63.60;100247.63;2115996;83;29085;-69
2022/06/02 00:24:29;;;;;;;6.55;5.08;;;;;;;12.31;63.74;100254.23;2142733;83;27797;-69
2022/06/02 00:27:55;;;;;;;8.68;5.67;;;;;;;12.28;64.01;100252.56;2142537;83;29655;-69
2022/06/02 00:31:18;;;;;;;5.87;4.60;;;;;;;12.28;64.30;100258.43;2142793;82;31856;-69
2022/06/02 00:34:40;;;;;;;6.55;5.12;;;;;;;12.28;64.33;100262.45;2142729;83;33342;-69
2022/06/02 00:37:59;;;;;;;7.28;5.30;;;;;;;12.29;64.57;100263.70;2127302;82;29028;-69
2022/06/02 00:41:34;;;;;;;7.08;5.37;;;;;;;12.31;64.64;100269.86;2183193;79;27716;-69
2022/06/02 00:45:01;;;;;;;6.58;5.60;;;;;;;12.36;64.87;100256.64;2146860;82;28654;-69
2022/06/02 00:48:45;;;;;;;6.37;5.58;;;;;;;12.39;64.65;100268.56;2146942;82;32143;-69
2022/06/02 00:52:01;;;;;;;7.90;5.33;;;;;;;12.39;64.77;100270.75;2156959;82;33049;-68
2022/06/02 00:58:36;;;;;;;7.75;5.37;;;;;;;12.36;64.86;100261.52;2167437;81;27696;-68
2022/06/02 01:01:38;;;;;;;7.33;5.75;;;;;;;12.35;64.88;100253.56;2167339;82;28730;-69
2022/06/02 01:04:43;;;;;;;7.67;5.42;;;;;;;12.33;65.03;100254.98;2157540;82;31103;-68
2022/06/02 01:07:53;;;;;;;6.70;5.53;;;;;;;12.28;64.96;100261.97;2147013;82;32951;-70
2022/06/02 01:11:15;;;;;;;8.18;5.15;;;;;;;12.22;64.97;100274.42;2146802;82;29095;-69
2022/06/02 01:14:41;;;;;;;6.83;5.72;;;;;;;12.18;65.15;100271.52;2147067;82;28430;-69
2022/06/02 01:18:15;;;;;;;7.78;5.20;;;;;;;12.17;65.40;100268.44;2146952;81;28661;-70
2022/06/02 01:21:57;;;;;;;6.87;5.37;;;;;;;12.19;65.73;100276.39;2207543;79;32237;-68
2022/06/02 01:25:38;;;;;;;7.80;5.25;;;;;;;12.22;65.91;100269.52;2209185;80;32878;-69
2022/06/02 01:29:07;;;;;;;6.70;5.53;;;;;;;12.26;65.91;100275.95;2209211;80;29806;-69
2022/06/02 01:32:14;;;;;;;6.78;4.97;;;;;;;12.29;66.10;100269.08;2209253;80;27760;-70
2022/06/02 01:35:23;;;;;;;6.65;5.47;;;;;;;12.34;66.22;100277.35;2208520;80;28728;-69
2022/06/02 01:38:58;;;;;;;6.85;4.97;;;;;;;12.38;66.36;100289.66;2248233;78;31007;-69
2022/06/02 01:42:14;;;;;;;7.60;5.00;;;;;;;12.42;66.40;100288.51;2256257;78;33026;-69
2022/06/02 01:45:37;;;;;;;9.78;5.30;;;;;;;12.46;66.50;100280.20;2255433;78;29863;-69
2022/06/02 01:49:22;;;;;;;6.58;5.92;;;;;;;12.51;66.62;100281.28;2254715;78;27722;-70
2022/06/02 01:52:38;;;;;;;8.25;6.40;;;;;;;12.56;66.69;100276.51;2249182;79;28692;-71
2022/06/02 01:55:51;;;;;;;8.73;5.60;;;;;;;12.60;66.75;100282.06;2249117;79;31829;-70
2022/06/02 01:59:31;;;;;;;11.35;6.95;;;;;;;12.65;66.82;100279.59;2249287;79;33004;-70
2022/06/02 02:02:58;;;;;;;12.03;6.65;;;;;;;12.69;66.89;100278.47;2249168;79;29967;-70
2022/06/02 02:06:29;;;;;;;7.55;6.58;;;;;;;12.75;66.92;100276.28;2166488;82;27651;-69
2022/06/02 02:09:53;;;;;;;10.00;6.65;;;;;;;12.80;66.95;100273.80;2121794;83;28801;-70
2022/06/02 02:13:26;;;;;;;6.75;6.05;;;;;;;12.85;67.01;100267.19;2116135;83;31879;-71
2022/06/02 02:16:45;;;;;;;10.50;7.30;;;;;;;12.89;67.04;100266.06;2103353;83;32981;-70
2022/06/02 02:19:52;;;;;;;8.48;6.72;;;;;;;12.92;67.08;100270.38;2148876;82;29029;-70
2022/06/02 02:23:25;;;;;;;7.60;6.62;;;;;;;12.94;67.03;100271.61;2168381;82;28196;-69
2022/06/02 02:26:36;;;;;;;9.93;7.45;;;;;;;12.97;67.11;100274.13;2167908;80;28655;-69
2022/06/02 02:30:07;;;;;;;13.35;9.63;;;;;;;13.00;67.07;100271.26;2167715;82;31839;-70
2022/06/02 02:33:47;;;;;;;14.60;8.73;;;;;;;13.02;67.05;100262.62;2165676;82;33983;-71
2022/06/02 02:37:12;;;;;;;11.73;8.88;;;;;;;13.03;66.98;100253.59;2158076;82;29264;-70
2022/06/02 02:40:19;;;;;;;11.30;8.23;;;;;;;13.04;67.08;100249.95;2158534;82;27733;-70
2022/06/02 02:43:48;;;;;;;11.60;8.33;;;;;;;13.04;67.05;100257.53;2162251;82;28854;-70
2022/06/02 02:47:21;;;;;;;9.35;8.35;;;;;;;13.03;67.12;100268.39;2256389;78;31722;-69
2022/06/02 02:50:37;;;;;;;11.43;8.33;;;;;;;13.04;67.26;100275.50;2254668;78;33035;-70
2022/06/02 02:54:00;;;;;;;9.53;8.05;;;;;;;13.06;67.29;100285.20;2256292;78;29022;-70
2022/06/02 02:57:32;;;;;;;10.23;7.37;;;;;;;13.09;67.34;100309.69;2235075;78;27741;-70
2022/06/02 03:01:02;;;;;;;8.10;6.17;;;;;;;13.11;67.58;100319.03;2147034;82;28746;-69
2022/06/02 03:04:17;;;;;;;12.90;7.45;;;;;;;13.11;67.54;100299.70;2146890;82;31849;-70
2022/06/02 03:07:21;;;;;;;8.38;6.62;;;;;;;13.10;67.51;100313.26;2146265;82;32971;-70
2022/06/02 03:10:27;;;;;;;7.92;6.33;;;;;;;13.10;67.63;100323.52;2146938;82;29863;-70
2022/06/02 03:13:36;;;;;;;7.58;6.72;;;;;;;13.08;67.63;100326.78;2125478;82;27763;-70
2022/06/02 03:16:38;;;;;;;10.98;8.05;;;;;;;13.07;67.66;100346.59;2110494;84;29500;-70
2022/06/02 03:20:17;;;;;;;8.65;7.15;;;;;;;13.06;67.70;100343.52;2110558;84;31027;-69
2022/06/02 03:23:48;;;;;;;9.73;6.97;;;;;;;13.04;67.76;100350.80;2110609;84;33264;-70
2022/06/02 03:26:55;;;;;;;11.18;7.22;;;;;;;13.02;67.72;100389.87;2115400;82;29918;-69
2022/06/02 03:30:19;;;;;;;12.33;8.25;;;;;;;13.03;67.87;100412.27;2076061;85;27967;-69
2022/06/02 03:33:46;;;;;;;11.68;8.85;;;;;;;13.00;67.68;100405.23;2076232;85;29497;-69
2022/06/02 03:37:15;;;;;;;11.40;9.18;;;;;;;12.95;67.58;100408.68;2130347;81;32030;-70
2022/06/02 03:40:39;;;;;;;14.40;10.05;;;;;;;12.90;67.57;100415.68;2185843;81;32991;-70
2022/06/02 03:43:53;;;;;;;13.45;10.48;;;;;;;12.90;67.60;100434.50;2158812;81;30351;-69
2022/06/02 03:47:26;;;;;;;14.35;9.78;;;;;;;12.89;67.63;100443.98;2172079;81;27686;-69
2022/06/02 03:51:11;;;;;;;12.05;8.68;;;;;;;12.86;67.66;100450.87;2103352;84;28807;-70
2022/06/02 03:54:24;;;;;;;9.85;7.53;;;;;;;12.85;67.65;100457.20;2102663;84;31820;-70
2022/06/02 03:58:01;;;;;;;12.30;7.35;;;;;;;12.83;67.85;100455.95;1967810;90;33143;-70
2022/06/02 04:01:06;;;;;;;9.78;7.05;;;;;;;12.80;67.71;100456.12;1977265;88;29851;-69
2022/06/02 04:04:41;;;;;;;9.80;6.90;;;;;;;12.82;67.83;100449.34;2002985;88;34854;-69
2022/06/02 04:07:58;;;;;;;9.55;6.58;;;;;;;12.85;68.00;100445.10;2002960;88;28665;-70
2022/06/02 04:15:11;;;;;;;8.53;5.97;;;;;;;13.07;68.04;100452.83;2000940;88;34218;-68
2022/06/02 04:18:37;;;;;;;6.85;5.95;;;;;;;13.26;67.96;100474.60;2000960;88;29982;-68
2022/06/02 04:22:19;;;;;;;8.38;6.17;;;;;;;13.33;67.79;100494.83;2027214;87;27726;-67
2022/06/02 04:25:41;;;;;;;10.93;6.62;;;;;;;13.34;67.76;100485.31;2030207;87;29873;-67
2022/06/02 04:29:13;;;;;;;7.62;5.35;;;;;;;13.33;68.20;100501.55;2056488;86;31931;-67
2022/06/02 04:32:40;;;;;;;8.08;5.70;;;;;;;13.24;68.23;100516.41;2086321;84;34353;-68
2022/06/02 04:36:27;;;;;;;6.72;5.95;;;;;;;13.17;68.33;100521.73;2091659;84;29073;-70
2022/06/02 04:39:45;;;;;;;8.05;6.15;;;;;;;13.11;68.67;100509.50;2072078;85;27738;-69
2022/06/02 04:43:16;;;;;;;10.28;6.75;;;;;;;13.04;68.98;100506.30;2052702;86;28690;-69
2022/06/02 04:46:29;;;;;;;9.55;6.47;;;;;;;13.03;69.08;100517.16;2052668;86;33192;-69
2022/06/02 04:50:11;;;;;;;7.42;6.22;;;;;;;13.01;69.26;100506.96;2052582;85;33698;-68
2022/06/02 04:53:40;;;;;;;9.00;6.35;;;;;;;13.10;69.53;100514.98;2059646;85;30252;-69
2022/06/02 04:57:06;;;;;;;8.95;6.22;;;;;;;13.64;70.43;100503.82;2078381;85;27734;-68
2022/06/02 05:00:29;;;;;;;7.25;5.85;;;;;;;14.74;69.75;100510.12;2079397;85;29885;-68
2022/06/02 05:03:55;;;;;;;6.87;5.80;;;;;;;15.16;68.87;100509.30;2074328;85;32294;-69
2022/06/02 05:07:14;;;;;;;7.62;4.70;;;;;;;15.30;68.11;100520.54;2052994;86;33796;-68
2022/06/02 05:10:33;;;;;;;5.72;4.97;;;;;;;15.32;67.78;100526.20;2053137;86;29553;-68
2022/06/02 05:14:17;;;;;;;6.60;4.95;;;;;;;15.29;67.56;100533.16;2088322;79;27631;-68
2022/06/02 05:17:30;;;;;;;7.25;5.70;;;;;;;15.29;67.48;100529.60;2164899;81;29387;-69
2022/06/02 05:21:05;;;;;;;8.90;5.58;;;;;;;15.22;67.27;100539.06;2253448;78;31380;-68
2022/06/02 05:24:33;;;;;;;5.80;4.47;;;;;;;15.19;67.59;100540.13;2250222;78;33312;-69
2022/06/02 05:28:08;;;;;;;7.15;5.87;;;;;;;15.41;67.85;100545.45;2248620;79;30170;-68
2022/06/02 05:31:33;;;;;;;7.40;5.47;;;;;;;15.66;67.62;100541.98;2075068;85;28196;-68
2022/06/02 05:34:43;;;;;;;7.45;5.30;;;;;;;15.84;67.14;100534.95;2079172;85;29683;-67
2022/06/02 05:38:20;;;;;;;7.30;5.53;;;;;;;15.92;66.59;100538.89;2047819;86;32283;-68
2022/06/02 05:41:52;;;;;;;5.85;4.22;;;;;;;16.18;67.06;100542.13;2024040;87;33509;-68
2022/06/02 05:45:05;;;;;;;5.97;3.85;;;;;;;17.20;67.28;100542.17;2004224;88;29961;-67
2022/06/02 05:48:12;;;;;;;5.42;3.87;;;;;;;18.04;65.11;100566.11;2025885;86;27754;-67
2022/06/02 05:51:29;;;;;;;4.30;3.65;;;;;;;17.93;64.21;100566.05;2004320;88;29891;-67
2022/06/02 05:54:56;;;;;;;7.62;3.47;;;;;;;17.68;63.58;100558.92;2025685;87;32262;-67
2022/06/02 05:58:06;;;;;;;4.30;3.50;;;;;;;17.33;63.19;100574.14;2004250;88;33857;-67
2022/06/02 06:01:34;;;;;;;6.30;3.40;;;;;;;16.94;62.80;100548.96;2028380;86;29023;-69
2022/06/02 06:05:03;;;;;;;3.90;3.45;;;;;;;16.61;62.75;100559.88;2113310;84;27963;-67
2022/06/02 06:08:22;;;;;;;5.45;3.58;;;;;;;16.36;63.27;100587.31;2139227;82;29515;-67
2022/06/02 06:11:32;;;;;;;5.95;4.10;;;;;;;16.16;63.33;100576.50;2149336;82;31022;-66
2022/06/02 06:14:43;;;;;;;6.37;3.45;;;;;;;16.15;63.85;100582.87;2149276;82;33764;-67
2022/06/02 06:18:30;;;;;;;4.45;3.40;;;;;;;16.77;64.69;100580.81;2148991;82;29087;-67
2022/06/02 06:21:43;;;;;;;4.20;3.80;;;;;;;17.71;64.21;100583.94;2244992;78;27604;-67
2022/06/02 06:25:03;;;;;;;8.88;4.72;;;;;;;18.49;63.63;100584.86;2270917;78;28710;-69
2022/06/02 06:28:15;;;;;;;3.08;2.77;;;;;;;19.86;62.68;100578.30;2270658;78;32222;-68
2022/06/02 06:31:32;;;;;;;3.75;2.52;;;;;;;21.31;61.03;100577.61;2270932;78;33835;-69
2022/06/02 06:35:14;;;;;;;2.50;2.30;;;;;;;22.54;59.46;100578.09;2271009;78;29484;-68
2022/06/02 06:38:39;;;;;;;4.30;2.35;;;;;;;23.70;57.38;100578.72;2225124;79;27695;-67
2022/06/02 06:41:56;;;;;;;2.83;2.40;;;;;;;24.87;55.71;100576.27;2219874;80;28673;-67
2022/06/02 06:45:11;;;;;;;4.17;2.50;;;;;;;25.70;53.82;100584.81;2219032;80;31034;-68
2022/06/02 06:48:23;;;;;;;3.50;2.17;;;;;;;26.40;52.25;100588.12;2219702;80;32915;-68
2022/06/02 06:51:47;;;;;;;2.05;1.95;;;;;;;27.07;51.06;100585.59;2246206;78;29029;-67
2022/06/02 06:55:06;;;;;;;3.00;2.70;;;;;;;27.62;49.56;100582.08;2263815;78;27579;-67
2022/06/02 06:58:34;;;;;;;2.85;2.30;;;;;;;28.04;47.80;100589.87;2263762;78;28632;-67
2022/06/02 07:01:48;;;;;;;3.25;2.45;;;;;;;28.25;46.94;100588.36;2263417;78;32232;-68
2022/06/02 07:05:21;;;;;;;5.87;3.17;;;;;;;28.66;45.02;100593.46;2263064;78;33007;-68
2022/06/02 07:08:47;;;;;;;3.30;2.72;;;;;;;28.97;44.53;100587.48;2259977;78;29066;-67
2022/06/02 07:15:50;;;;;;;6.50;2.83;;;;;;;29.46;42.18;100588.77;2259462;78;29933;-66
2022/06/02 07:19:09;;;;;;;5.78;2.80;;;;;;;29.65;41.04;100591.45;2253403;78;31913;-67
2022/06/02 07:22:36;;;;;;;3.22;2.92;;;;;;;29.79;40.45;100584.69;2259074;78;33947;-66
2022/06/02 07:26:21;;;;;;;3.20;2.90;;;;;;;29.63;39.32;100585.27;2260758;78;30038;-66
2022/06/02 07:30:06;;;;;;;2.37;2.17;;;;;;;29.58;38.92;100590.50;2218615;80;27711;-66
2022/06/02 07:33:44;;;;;;;2.83;2.60;;;;;;;29.58;38.61;100591.88;2218498;80;29875;-66
2022/06/02 07:37:04;;;;;;;3.98;2.90;;;;;;;29.66;38.17;100600.57;2217730;80;31898;-67
2022/06/02 07:40:46;;;;;;;3.17;2.98;;;;;;;29.63;37.46;100603.21;2215059;80;33004;-67
2022/06/02 07:44:24;;;;;;;3.08;2.80;;;;;;;29.63;36.79;100607.86;2096523;84;29845;-68
2022/06/02 07:48:04;;;;;;;4.65;2.70;;;;;;;29.77;36.82;100613.89;2096863;84;28267;-68
2022/06/02 07:51:32;;;;;;;5.58;2.92;;;;;;;29.75;35.86;100604.94;2096657;84;29910;-68
2022/06/02 07:54:58;;;;;;;3.00;2.67;;;;;;;29.76;35.93;100611.30;2096692;84;31023;-67
2022/06/02 07:58:42;;;;;;;4.45;3.12;;;;;;;29.81;35.03;100615.19;2096774;84;33279;-67
2022/06/02 08:02:25;;;;;;;6.33;2.92;;;;;;;29.61;34.39;100612.75;2097123;84;29881;-69
2022/06/02 08:05:53;;;;;;;3.50;2.75;;;;;;;29.47;34.77;100613.10;2052874;86;27746;-67
2022/06/02 08:09:23;;;;;;;4.65;3.15;;;;;;;29.26;34.30;100624.37;2051780;86;29931;-69
2022/06/02 08:12:45;;;;;;;2.72;2.52;;;;;;;29.21;34.04;100611.66;2016457;88;31937;-68
2022/06/02 08:16:21;;;;;;;3.87;2.65;;;;;;;28.96;33.92;100620.25;2027614;87;33049;-68
2022/06/02 08:19:40;;;;;;;2.70;2.50;;;;;;;28.95;33.51;100622.16;2070863;85;29043;-68
2022/06/02 08:22:59;;;;;;;3.75;2.52;;;;;;;29.04;33.80;100628.95;2100880;84;27785;-68
2022/06/02 08:26:17;;;;;;;2.70;2.50;;;;;;;29.07;33.90;100626.66;2128134;83;28246;-68
2022/06/02 08:29:49;;;;;;;2.70;2.50;;;;;;;29.03;33.52;100628.11;2075821;83;31358;-68
2022/06/02 08:33:16;;;;;;;3.12;2.37;;;;;;;29.07;33.34;100638.23;2110830;84;32972;-66
2022/06/02 08:36:29;;;;;;;2.55;2.35;;;;;;;28.86;33.35;100641.20;2110926;84;29025;-68
2022/06/02 08:39:51;;;;;;;2.17;2.08;;;;;;;28.98;33.12;100646.25;2135837;82;27764;-67
2022/06/02 08:43:01;;;;;;;2.55;2.30;;;;;;;29.03;32.54;100643.28;2131688;83;28677;-69
2022/06/02 08:46:39;;;;;;;4.78;2.27;;;;;;;28.89;32.06;100639.96;2130986;83;31886;-68
2022/06/02 08:50:12;;;;;;;2.47;1.98;;;;;;;28.73;32.07;100644.60;2056648;86;32983;-68
2022/06/02 08:53:49;;;;;;;7.58;3.02;;;;;;;28.31;32.07;100652.35;2058594;86;29029;-68
2022/06/02 08:57:05;;;;;;;3.98;2.17;;;;;;;28.33;32.68;100645.30;1993531;88;27825;-69
2022/06/02 09:00:30;;;;;;;3.52;2.65;;;;;;;28.46;32.10;100657.92;1992332;87;28667;-69
2022/06/02 09:04:02;;;;;;;5.25;2.47;;;;;;;28.40;31.79;100653.14;1993171;89;31073;-69
2022/06/02 09:07:38;;;;;;;2.33;1.80;;;;;;;28.43;31.92;100654.70;1984740;89;33172;-69
2022/06/02 09:10:54;;;;;;;3.85;1.90;;;;;;;28.15;31.73;100656.11;1984835;89;29128;-69
2022/06/02 09:14:25;;;;;;;1.65;1.52;;;;;;;28.03;31.46;100662.52;1977534;89;27759;-68
2022/06/02 09:18:12;;;;;;;3.55;1.95;;;;;;;27.99;31.50;100656.19;1952462;91;29568;-67
2022/06/02 09:21:24;;;;;;;1.52;1.42;;;;;;;27.85;31.28;100657.31;1953940;90;32137;-67
2022/06/02 09:24:43;;;;;;;6.75;1.60;;;;;;;27.71;31.27;100664.97;1933997;91;33042;-70
2022/06/02 09:28:02;;;;;;;1.65;1.27;;;;;;;27.56;31.02;100669.83;2004499;88;29080;-69
2022/06/02 09:31:12;;;;;;;1.10;1.10;;;;;;;27.40;30.76;100679.50;2043848;86;27776;-69
2022/06/02 09:34:42;;;;;;;3.08;1.47;;;;;;;27.22;31.56;100673.71;2067260;85;29493;-69
2022/06/02 09:38:13;;;;;;;3.77;1.55;;;;;;;27.12;31.21;100664.81;2078294;85;27773;-69
2022/06/02 09:42:00;;;;;;;2.98;1.10;;;;;;;26.72;31.20;100675.69;2079059;85;33025;-69
2022/06/02 09:45:56;;;;;;;1.30;1.20;;;;;;;26.44;31.26;100673.80;2099068;84;29068;-68
2022/06/02 09:49:32;;;;;;;1.40;1.30;;;;;;;26.18;31.36;100681.16;2117903;84;27821;-69
2022/06/02 09:52:45;;;;;;;2.42;1.10;;;;;;;26.06;31.73;100680.59;2089474;84;30022;-69
2022/06/02 09:56:33;;;;;;;1.42;1.07;;;;;;;25.78;31.54;100680.03;2083191;85;31206;-68
2022/06/02 09:59:40;;;;;;;1.82;1.27;;;;;;;25.27;31.72;100675.83;2163713;82;34239;-68
2022/06/02 10:03:36;;;;;;;2.25;1.47;;;;;;;24.81;32.14;100673.34;2248486;79;29003;-69
2022/06/02 10:07:07;;;;;;;2.85;1.32;;;;;;;24.49;32.44;100682.47;2209492;80;27696;-69
2022/06/02 10:10:57;;;;;;;1.15;1.07;;;;;;;24.13;32.92;100686.58;2209185;80;29898;-66
2022/06/02 10:14:43;;;;;;;2.40;1.32;;;;;;;24.03;33.50;100679.80;2209139;80;31219;-68
2022/06/02 10:17:59;;;;;;;6.53;1.00;;;;;;;24.07;34.19;100683.12;2209244;80;33099;-67
2022/06/02 10:21:43;;;;;;;1.27;1.17;;;;;;;23.98;34.01;100680.80;2222581;79;29023;-67
2022/06/02 10:25:10;;;;;;;2.67;1.22;;;;;;;23.90;34.02;100680.66;2248839;79;27664;-66
2022/06/02 10:28:27;;;;;;;1.20;1.10;;;;;;;23.88;34.25;100684.94;2146645;82;29410;-67
2022/06/02 10:32:03;;;;;;;1.82;1.10;;;;;;;23.87;34.20;100676.86;2145659;82;31050;-66
2022/06/02 10:35:54;;;;;;;1.67;1.30;;;;;;;23.85;34.72;100685.23;2146476;82;33094;-66
2022/06/02 10:39:30;;;;;;;1.12;1.10;;;;;;;23.78;34.67;100678.16;2151706;81;29880;-67
2022/06/02 10:43:02;;;;;;;1.50;1.30;;;;;;;23.72;34.85;100682.02;2172835;81;27720;-67
2022/06/02 10:46:46;;;;;;;1.20;1.20;;;;;;;23.63;34.85;100683.27;2172425;81;29896;-66
2022/06/02 10:50:27;;;;;;;1.50;1.40;;;;;;;23.55;35.00;100679.08;2146047;81;31651;-67
2022/06/02 10:53:55;;;;;;;3.85;1.00;;;;;;;23.44;35.38;100674.66;2080827;85;33022;-67
2022/06/02 10:57:42;;;;;;;2.22;1.02;;;;;;;23.28;35.11;100662.16;2080645;85;30225;-68
2022/06/02 11:01:15;;;;;;;2.72;1.25;;;;;;;23.09;35.25;100673.97;2081179;85;27748;-68
2022/06/02 11:04:40;;;;;;;2.80;1.42;;;;;;;23.05;35.49;100676.14;2104711;84;28815;-67
2022/06/02 11:08:11;;;;;;;2.12;1.12;;;;;;;22.91;35.32;100676.98;2115421;82;31087;-67
2022/06/02 11:11:32;;;;;;;2.98;1.00;;;;;;;22.77;34.99;100677.45;2043225;87;34072;-67
2022/06/02 11:15:08;;;;;;;1.05;0.95;;;;;;;22.58;35.38;100671.52;2043099;87;30198;-68
2022/06/02 11:18:49;;;;;;;2.95;1.10;;;;;;;22.43;35.58;100667.84;2043542;87;28365;-65
2022/06/02 11:22:26;;;;;;;3.42;1.00;;;;;;;22.45;36.12;100678.64;2047076;86;29226;-67
2022/06/02 11:26:10;;;;;;;2.98;1.40;;;;;;;22.48;35.88;100669.28;2011853;88;32449;-70
2022/06/02 11:29:45;;;;;;;0.60;0.60;;;;;;;22.54;36.21;100668.20;2011697;85;34261;-67
2022/06/02 11:33:13;;;;;;;2.98;0.90;;;;;;;22.54;35.44;100659.16;2078267;85;30062;-68
2022/06/02 11:36:39;;;;;;;1.07;0.80;;;;;;;22.53;35.51;100668.36;2078419;85;27648;-68
2022/06/02 11:40:19;;;;;;;1.15;1.05;;;;;;;22.52;35.44;100663.90;2078783;84;28656;-67
2022/06/02 11:43:29;;;;;;;2.17;0.90;;;;;;;22.50;35.47;100658.59;2078169;85;32382;-70
2022/06/02 11:46:58;;;;;;;1.10;1.00;;;;;;;22.36;35.34;100658.98;2077970;85;32994;-66
2022/06/02 11:50:41;;;;;;;2.27;0.80;;;;;;;22.35;35.72;100664.95;2219189;80;29901;-69
2022/06/02 11:54:23;;;;;;;2.22;1.17;;;;;;;22.34;35.62;100660.50;2219335;80;27817;-69
2022/06/02 11:57:53;;;;;;;2.62;0.90;;;;;;;22.29;35.50;100666.88;2219502;80;28742;-68
2022/06/02 12:01:16;;;;;;;0.88;0.85;;;;;;;22.26;35.47;100669.89;2219432;80;31708;-67
2022/06/02 12:04:49;;;;;;;1.95;0.70;;;;;;;22.21;35.03;100664.03;2219697;80;33088;-66
2022/06/02 12:08:23;;;;;;;2.47;1.07;;;;;;;22.11;35.37;100660.77;2219715;80;29037;-66
2022/06/02 12:11:51;;;;;;;1.30;0.80;;;;;;;22.14;35.75;100660.50;2173159;81;27890;-68
2022/06/02 12:15:27;;;;;;;1.07;0.60;;;;;;;22.19;35.45;100670.97;2172765;81;28653;-71
2022/06/02 12:18:34;;;;;;;2.20;0.65;;;;;;;22.16;35.43;100669.41;2093756;84;31035;-70
2022/06/02 12:22:02;;;;;;;0.65;0.65;;;;;;;22.15;35.26;100676.38;2088139;85;32956;-67
2022/06/02 12:25:35;;;;;;;0.78;0.78;;;;;;;22.09;35.18;100676.42;2093237;85;29024;-68
2022/06/02 12:29:03;;;;;;;2.20;0.60;;;;;;;22.04;34.77;100673.28;2093260;85;28021;-68
2022/06/02 12:32:14;;;;;;;0.85;0.85;;;;;;;21.90;34.87;100670.97;2089802;85;28680;-69
2022/06/02 12:35:40;;;;;;;0.60;0.60;;;;;;;21.87;35.30;100672.09;2093010;85;31153;-66
2022/06/02 12:38:59;;;;;;;0.80;0.62;;;;;;;21.89;35.27;100666.00;2093026;85;33729;-67
2022/06/02 12:42:38;;;;;;;0.50;0.50;;;;;;;21.97;35.26;100674.84;2093060;85;30061;-67
2022/06/02 12:46:29;;;;;;;2.87;0.95;;;;;;;21.98;34.84;100675.20;2093561;85;27739;-68
2022/06/02 12:49:48;;;;;;;2.80;0.90;;;;;;;21.94;34.96;100679.20;2135761;83;28749;-67
2022/06/02 12:53:10;;;;;;;3.12;1.10;;;;;;;21.89;35.03;100683.73;2136927;83;31091;-67
2022/06/02 12:56:49;;;;;;;0.72;0.72;;;;;;;21.85;35.21;100680.42;2245209;78;33913;-67
2022/06/02 13:00:22;;;;;;;0.90;0.85;;;;;;;21.89;35.15;100678.27;2263584;78;29710;-68
2022/06/02 13:03:52;;;;;;;1.50;1.00;;;;;;;21.92;34.93;100671.17;2263873;78;27603;-67
2022/06/02 13:07:25;;;;;;;1.35;1.25;;;;;;;21.98;34.79;100672.47;2263854;78;28663;-68
2022/06/02 13:11:23;;;;;;;0.82;0.82;;;;;;;22.05;34.88;100679.59;2257642;78;31086;-69
2022/06/02 13:15:05;;;;;;;0.93;0.88;;;;;;;22.04;34.75;100671.92;2263442;78;34229;-69
2022/06/02 13:18:39;;;;;;;0.90;0.90;;;;;;;22.04;34.58;100671.04;2263886;78;30155;-67
2022/06/02 13:22:19;;;;;;;1.32;0.80;;;;;;;22.05;34.54;100677.73;2264541;78;28052;-70
2022/06/02 13:25:49;;;;;;;0.72;0.60;;;;;;;22.04;34.64;100681.95;2219862;80;28804;-67
2022/06/02 13:29:06;;;;;;;0.62;0.62;;;;;;;21.96;34.42;100680.81;2219662;80;31021;-69
2022/06/02 13:32:16;;;;;;;1.62;0.80;;;;;;;21.95;34.53;100683.17;2219773;80;33014;-68
2022/06/02 13:35:53;;;;;;;0.85;0.70;;;;;;;21.90;34.46;100684.61;2218507;80;30357;-69
2022/06/02 13:39:30;;;;;;;3.12;0.80;;;;;;;21.87;34.21;100676.70;2219681;80;27758;-68
2022/06/02 13:43:03;;;;;;;1.05;0.70;;;;;;;21.86;33.96;100678.55;2219243;80;30121;-68
2022/06/02 13:46:19;;;;;;;1.80;1.00;;;;;;;21.88;34.26;100679.79;2219663;80;31404;-69
2022/06/02 13:49:47;;;;;;;2.08;0.60;;;;;;;21.85;34.26;100677.70;2229282;78;33750;-70
2022/06/02 13:53:34;;;;;;;2.27;0.70;;;;;;;21.81;34.31;100676.25;2260070;78;29027;-70
2022/06/02 13:57:31;;;;;;;1.00;0.80;;;;;;;21.72;34.28;100682.55;2260234;78;27730;-69
2022/06/02 14:01:22;;;;;;;0.80;0.78;;;;;;;21.66;34.31;100679.02;2260038;78;28530;-67
2022/06/02 14:05:18;;;;;;;3.02;0.95;;;;;;;21.61;34.26;100675.83;2260177;78;32286;-68
2022/06/02 14:08:56;;;;;;;3.08;0.98;;;;;;;21.52;34.31;100682.45;2259910;78;33499;-70
2022/06/02 14:12:39;;;;;;;0.85;0.70;;;;;;;21.51;34.53;100676.64;2259906;78;29849;-70
2022/06/02 14:20:15;;;;;;;2.10;1.00;;;;;;;21.47;34.16;100684.73;2170885;81;28143;-68
2022/06/02 14:23:42;;;;;;;5.12;1.20;;;;;;;21.47;34.20;100671.61;2173404;81;31768;-68
2022/06/02 14:27:17;;;;;;;1.00;0.68;;;;;;;21.44;34.35;100683.63;2173305;81;33769;-68
2022/06/02 14:30:33;;;;;;;41.17;4.27;;;;;;;21.45;34.18;100685.36;2173477;81;29027;-67
2022/06/02 14:33:39;;;;;;;1.67;1.05;;;;;;;21.45;34.24;100687.23;2173201;81;27871;-68
2022/06/02 14:36:52;;;;;;;0.80;0.80;;;;;;;21.45;34.41;100688.09;2173339;81;28645;-67
2022/06/02 14:40:12;;;;;;;13.10;1.70;;;;;;;21.53;34.51;100685.55;2172667;81;31244;-69
2022/06/02 14:43:56;;;;;;;2.75;1.00;;;;;;;21.64;34.77;100682.38;2165884;82;33057;-69
2022/06/02 14:47:21;;;;;;;4.70;1.20;;;;;;;21.67;34.48;100677.53;2167377;82;29221;-70
2022/06/02 14:50:32;;;;;;;1.67;0.93;;;;;;;21.69;34.41;100681.47;2167468;82;28048;-69
2022/06/02 14:53:45;;;;;;;1.00;0.90;;;;;;;21.67;34.38;100673.44;2167296;79;28747;-70
2022/06/02 14:57:17;;;;;;;5.45;0.90;;;;;;;21.68;34.34;100675.65;2252994;79;31018;-70
2022/06/02 15:00:50;;;;;;;4.37;1.00;;;;;;;21.68;34.48;100675.65;2253132;79;34062;-70
2022/06/02 15:04:09;;;;;;;1.65;1.10;;;;;;;21.64;34.24;100679.16;2252955;78;29014;-71
2022/06/02 15:07:31;;;;;;;1.92;0.85;;;;;;;21.59;34.02;100682.77;2253217;78;27657;-71
2022/06/02 15:11:08;;;;;;;0.95;0.82;;;;;;;21.53;34.08;100673.28;2249348;78;28490;-70
2022/06/02 15:14:38;;;;;;;0.95;0.65;;;;;;;21.50;34.28;100668.10;2248741;79;31077;-70
2022/06/02 15:18:15;;;;;;;1.85;1.27;;;;;;;21.48;34.08;100671.98;2248838;79;33002;-71
2022/06/02 15:21:43;;;;;;;1.00;1.00;;;;;;;21.43;34.04;100672.37;2248064;79;29025;-70
2022/06/02 15:25:12;;;;;;;1.17;0.70;;;;;;;21.39;34.32;100673.66;2248967;79;27637;-69
2022/06/02 15:28:44;;;;;;;0.68;0.68;;;;;;;21.37;34.36;100668.84;2249746;79;28645;-70
2022/06/02 15:32:10;;;;;;;3.45;1.65;;;;;;;21.35;34.32;100673.57;2249443;79;31020;-70
2022/06/02 15:36:09;;;;;;;0.80;0.60;;;;;;;21.33;34.22;100672.36;2248944;79;33860;-71
2022/06/02 15:40:05;;;;;;;0.70;0.70;;;;;;;21.31;34.23;100663.45;2253552;78;29219;-73
2022/06/02 15:43:57;;;;;;;1.47;0.90;;;;;;;21.19;34.06;100665.89;2256627;78;27697;-68
2022/06/02 15:47:39;;;;;;;0.88;0.80;;;;;;;21.14;34.11;100667.67;2256296;78;28655;-69
2022/06/02 15:50:52;;;;;;;1.25;0.70;;;;;;;21.12;33.96;100677.83;2256428;78;31907;-71
2022/06/02 15:53:59;;;;;;;0.72;0.72;;;;;;;21.07;33.98;100675.52;2249887;78;33787;-71
2022/06/02 15:57:50;;;;;;;2.45;0.72;;;;;;;21.05;34.26;100676.66;2244416;78;30239;-71
2022/06/02 16:01:35;;;;;;;5.83;1.20;;;;;;;21.05;34.01;100685.69;2256103;78;27707;-69
2022/06/02 16:04:57;;;;;;;1.55;0.98;;;;;;;21.03;34.16;100684.11;2256199;78;29363;-71
2022/06/02 16:08:22;;;;;;;4.60;1.27;;;;;;;21.01;34.19;100687.46;2195395;80;31056;-70
2022/06/02 16:11:36;;;;;;;6.87;1.67;;;;;;;20.96;34.13;100682.42;2196056;81;33642;-67
2022/06/02 16:15:10;;;;;;;0.82;0.75;;;;;;;20.91;34.12;100686.04;2196026;81;29030;-68
2022/06/02 16:18:52;;;;;;;6.62;0.85;;;;;;;20.86;34.14;100682.36;2194851;81;27659;-69